Time;durP1;ratioP1;P1;durP2;ratioP2;P2;SDS_P1;SDS_P2;PMS_P1;PMS_P2;Temp;Humidity;BMP_temperature;BMP_pressure;BME280_temperature;BME280_humidity;BME280_pressure;Samples;Min_cycle;Max_cycle;Signal;HPM_P1;HPM_P2
2021/08/23 00:00:27;;;;;;;9.38;4.63;;;16.60;99.90;;;;;;4919678;29;20234;-93
2021/08/23 00:03:01;;;;;;;5.88;4.38;;;16.50;99.90;;;;;;4920398;29;20183;-95
2021/08/23 00:05:29;;;;;;;8.35;4.68;;;16.60;99.90;;;;;;4921673;29;20174;-94
2021/08/23 00:08:01;;;;;;;8.23;4.22;;;16.60;99.90;;;;;;4922382;29;20637;-95
2021/08/23 00:10:33;;;;;;;6.25;4.53;;;16.60;99.90;;;;;;4921922;29;20732;-95
2021/08/23 00:13:00;;;;;;;8.35;4.30;;;16.60;99.90;;;;;;4921670;29;20187;-94
2021/08/23 00:15:38;;;;;;;8.40;4.10;;;16.60;99.90;;;;;;4921496;29;20209;-94
2021/08/23 00:18:05;;;;;;;6.63;4.20;;;16.50;99.90;;;;;;4921156;29;20186;-95
2021/08/23 00:20:42;;;;;;;5.85;4.10;;;16.50;99.90;;;;;;4921279;29;20213;-94
2021/08/23 00:23:12;;;;;;;6.30;3.90;;;16.50;99.90;;;;;;4921240;29;20219;-94
2021/08/23 00:25:45;;;;;;;7.60;3.83;;;16.50;99.90;;;;;;4920734;29;20194;-94
2021/08/23 00:28:12;;;;;;;5.68;3.60;;;16.40;99.90;;;;;;4920827;29;20637;-95
2021/08/23 00:31:01;;;;;;;4.53;3.58;;;16.40;99.90;;;;;;4920158;29;20222;-95
2021/08/23 00:33:33;;;;;;;5.47;4.07;;;16.30;99.90;;;;;;4920679;29;20183;-95
2021/08/23 00:36:06;;;;;;;4.85;4.20;;;16.40;99.90;;;;;;4920190;29;20178;-95
2021/08/23 00:38:41;;;;;;;6.15;4.05;;;16.30;99.90;;;;;;4919887;29;20245;-95
2021/08/23 00:41:07;;;;;;;8.98;4.18;;;16.30;99.90;;;;;;4919877;29;20221;-95
2021/08/23 00:43:33;;;;;;;7.93;3.83;;;16.30;99.90;;;;;;4920140;29;20182;-96
2021/08/23 00:46:13;;;;;;;6.57;4.00;;;16.30;99.90;;;;;;4920199;29;20183;-94
2021/08/23 00:48:39;;;;;;;7.13;3.60;;;16.30;99.90;;;;;;4920230;29;20178;-94
2021/08/23 00:51:12;;;;;;;5.75;3.88;;;16.20;99.90;;;;;;4920536;29;20416;-95
2021/08/23 00:53:40;;;;;;;6.95;3.67;;;16.20;99.90;;;;;;4920145;29;20206;-95
2021/08/23 00:56:05;;;;;;;8.18;4.20;;;16.20;99.90;;;;;;4919865;29;20187;-95
2021/08/23 00:58:31;;;;;;;6.32;3.63;;;16.20;99.90;;;;;;4919417;29;20185;-96
2021/08/23 01:01:07;;;;;;;4.97;3.58;;;16.20;99.90;;;;;;4919106;29;20240;-95
2021/08/23 01:04:16;;;;;;;5.88;4.05;;;16.20;99.90;;;;;;4920148;29;20182;-95
2021/08/23 01:07:22;;;;;;;6.10;3.65;;;16.20;99.90;;;;;;4919783;29;20270;-95
2021/08/23 01:10:06;;;;;;;6.03;3.63;;;16.20;99.90;;;;;;4919348;29;20213;-94
2021/08/23 01:12:36;;;;;;;6.22;3.65;;;16.20;99.90;;;;;;4919269;29;20190;-95
2021/08/23 01:15:04;;;;;;;6.38;4.00;;;16.20;99.90;;;;;;4919410;29;20537;-96
2021/08/23 01:18:09;;;;;;;5.50;3.90;;;16.10;99.90;;;;;;4919105;29;20277;-95
2021/08/23 01:20:39;;;;;;;4.80;3.63;;;16.10;99.90;;;;;;4919193;29;20279;-94
2021/08/23 01:23:24;;;;;;;4.72;3.70;;;16.00;99.90;;;;;;4918868;29;20182;-95
2021/08/23 01:25:58;;;;;;;4.25;3.17;;;15.90;99.90;;;;;;4919140;29;20273;-94
2021/08/23 01:29:04;;;;;;;6.25;3.97;;;15.90;99.90;;;;;;4918850;29;20182;-96
2021/08/23 01:32:11;;;;;;;4.32;3.42;;;15.90;99.90;;;;;;4918674;29;20264;-93
2021/08/23 01:34:48;;;;;;;5.05;3.55;;;15.90;99.90;;;;;;4918850;29;20182;-95
2021/08/23 01:37:19;;;;;;;5.20;3.50;;;15.90;99.90;;;;;;4918495;29;20206;-95
2021/08/23 01:39:52;;;;;;;10.32;4.20;;;15.90;99.90;;;;;;4918437;29;20179;-95
2021/08/23 01:42:20;;;;;;;4.10;3.63;;;15.90;99.90;;;;;;4918325;29;20226;-95
2021/08/23 01:44:46;;;;;;;4.80;3.70;;;15.90;99.90;;;;;;4918934;29;20186;-94
2021/08/23 01:47:12;;;;;;;7.00;4.40;;;15.80;99.90;;;;;;4918689;29;20183;-95
2021/08/23 01:49:46;;;;;;;4.63;3.97;;;15.80;99.90;;;;;;4918772;29;20290;-93
2021/08/23 01:52:17;;;;;;;7.32;3.78;;;15.80;99.90;;;;;;4918099;29;20310;-94
2021/08/23 01:54:44;;;;;;;4.40;4.00;;;15.80;99.90;;;;;;4918179;29;20274;-95
2021/08/23 01:57:18;;;;;;;8.65;3.90;;;15.70;99.90;;;;;;4918447;29;20191;-95
2021/08/23 01:59:48;;;;;;;6.18;3.92;;;15.70;99.90;;;;;;4918025;29;20229;-96
2021/08/23 02:02:20;;;;;;;9.50;4.20;;;15.70;99.90;;;;;;4918028;29;20226;-96
2021/08/23 02:04:47;;;;;;;5.63;3.97;;;15.70;99.90;;;;;;4917975;29;20190;-95
2021/08/23 02:07:16;;;;;;;5.70;3.80;;;15.60;99.90;;;;;;4918438;29;20194;-95
2021/08/23 02:09:42;;;;;;;5.45;3.72;;;15.60;99.90;;;;;;4918332;29;20645;-94
2021/08/23 02:12:09;;;;;;;4.20;3.80;;;15.60;99.90;;;;;;4917815;29;20313;-95
2021/08/23 02:14:38;;;;;;;6.28;3.55;;;15.50;99.90;;;;;;4917627;29;20243;-94
2021/08/23 02:17:05;;;;;;;9.02;4.63;;;15.50;99.90;;;;;;4918014;29;20191;-95
2021/08/23 02:19:39;;;;;;;6.97;3.85;;;15.50;99.90;;;;;;4918208;29;20187;-93
2021/08/23 02:22:06;;;;;;;8.48;3.80;;;15.50;99.90;;;;;;4917970;29;20218;-94
2021/08/23 02:24:33;;;;;;;5.15;4.00;;;15.50;99.90;;;;;;4917629;29;20187;-95
2021/08/23 02:26:59;;;;;;;8.02;3.58;;;15.50;99.90;;;;;;4917944;29;20190;-95
2021/08/23 02:29:25;;;;;;;6.78;3.97;;;15.50;99.90;;;;;;4917278;29;20194;-95
2021/08/23 02:31:51;;;;;;;4.50;3.70;;;15.50;99.90;;;;;;4917189;29;20230;-94
2021/08/23 02:34:17;;;;;;;7.82;3.65;;;15.50;99.90;;;;;;4917410;29;20300;-93
2021/08/23 02:36:45;;;;;;;8.90;3.88;;;15.50;99.90;;;;;;4917864;29;20322;-95
2021/08/23 02:39:12;;;;;;;12.57;4.65;;;15.50;99.90;;;;;;4917276;29;20282;-94
2021/08/23 02:41:53;;;;;;;5.80;4.07;;;15.60;99.90;;;;;;4917817;29;20214;-94
2021/08/23 02:44:25;;;;;;;5.32;3.70;;;15.50;99.90;;;;;;4917316;29;20553;-95
2021/08/23 02:46:54;;;;;;;4.93;3.55;;;15.60;99.90;;;;;;4917345;29;20194;-95
2021/08/23 02:49:20;;;;;;;9.75;3.95;;;15.60;99.90;;;;;;4917264;29;20194;-95
2021/08/23 02:51:47;;;;;;;5.20;4.13;;;15.60;99.90;;;;;;4917164;29;20227;-95
2021/08/23 02:54:25;;;;;;;4.38;3.70;;;15.60;99.90;;;;;;4917464;29;20183;-94
2021/08/23 02:56:52;;;;;;;6.15;3.67;;;15.60;99.90;;;;;;4917159;29;20273;-95
2021/08/23 02:59:18;;;;;;;9.80;4.45;;;15.60;99.90;;;;;;4916495;29;20335;-94
2021/08/23 03:01:57;;;;;;;8.82;3.92;;;15.50;99.90;;;;;;4917072;29;20226;-95
2021/08/23 03:04:34;;;;;;;10.10;4.18;;;15.60;99.90;;;;;;4917365;29;20197;-95
2021/08/23 03:07:13;;;;;;;7.38;4.50;;;15.60;99.90;;;;;;4917167;29;20186;-95
2021/08/23 03:09:43;;;;;;;6.88;4.20;;;15.60;99.90;;;;;;4917297;29;20201;-94
2021/08/23 03:12:16;;;;;;;7.22;3.88;;;15.60;99.90;;;;;;4917365;29;20706;-94
2021/08/23 03:14:55;;;;;;;7.43;4.05;;;15.60;99.90;;;;;;4917615;29;20257;-95
2021/08/23 03:17:29;;;;;;;4.93;3.72;;;15.60;99.90;;;;;;4916251;29;20186;-94
2021/08/23 03:20:07;;;;;;;5.47;3.97;;;15.60;99.90;;;;;;4917178;29;20668;-95
2021/08/23 03:22:37;;;;;;;11.23;4.63;;;15.60;99.90;;;;;;4916942;29;20190;-95
2021/08/23 03:25:03;;;;;;;5.63;4.30;;;15.60;99.90;;;;;;4917023;29;20214;-94
2021/08/23 03:28:04;;;;;;;6.53;4.15;;;15.60;99.90;;;;;;4917298;29;20245;-94
2021/08/23 03:30:30;;;;;;;6.80;4.10;;;15.60;99.90;;;;;;4917023;29;20291;-95
2021/08/23 03:32:56;;;;;;;11.82;4.40;;;15.60;99.90;;;;;;4917176;29;20186;-95
2021/08/23 03:35:23;;;;;;;6.75;4.28;;;15.60;99.90;;;;;;4916476;29;20641;-96
2021/08/23 03:37:49;;;;;;;6.65;3.90;;;15.60;99.90;;;;;;4916162;29;20187;-95
2021/08/23 03:40:16;;;;;;;6.78;3.70;;;15.70;99.90;;;;;;4916626;29;20253;-94
2021/08/23 03:42:48;;;;;;;7.13;4.32;;;15.60;99.90;;;;;;4917130;29;20190;-95
2021/08/23 03:45:14;;;;;;;6.82;4.20;;;15.70;99.90;;;;;;4917224;29;20179;-94
2021/08/23 03:47:48;;;;;;;6.20;4.43;;;15.70;99.90;;;;;;4916758;29;20674;-95
2021/08/23 03:50:14;;;;;;;5.50;3.88;;;15.70;99.90;;;;;;4916272;29;20186;-94
2021/08/23 03:52:45;;;;;;;7.10;3.72;;;15.70;99.90;;;;;;4916352;29;20190;-95
2021/08/23 03:55:12;;;;;;;7.40;4.05;;;15.70;99.90;;;;;;4916495;29;20197;-93
2021/08/23 03:57:38;;;;;;;5.80;3.63;;;15.70;99.90;;;;;;4916577;29;20277;-94
2021/08/23 04:00:05;;;;;;;9.15;3.95;;;15.70;99.90;;;;;;4916011;29;20775;-95
2021/08/23 04:02:33;;;;;;;7.22;3.80;;;15.70;99.90;;;;;;4916338;29;20217;-95
2021/08/23 04:04:59;;;;;;;14.85;4.32;;;15.70;99.90;;;;;;4916012;29;20185;-94
2021/08/23 04:07:26;;;;;;;8.38;4.07;;;15.70;99.90;;;;;;4916427;29;20277;-95
2021/08/23 04:09:53;;;;;;;5.05;3.95;;;15.70;99.90;;;;;;4916678;29;20190;-95
2021/08/23 04:12:40;;;;;;;6.60;3.63;;;15.70;99.90;;;;;;4916635;29;20227;-95
2021/08/23 04:15:07;;;;;;;6.88;4.07;;;15.70;99.90;;;;;;4916333;29;20197;-94
2021/08/23 04:17:35;;;;;;;9.05;3.97;;;15.70;99.90;;;;;;4916314;29;20242;-94
2021/08/23 04:20:06;;;;;;;5.03;3.85;;;15.70;99.90;;;;;;4916455;29;20196;-95
2021/08/23 04:22:32;;;;;;;4.55;3.53;;;15.70;99.90;;;;;;4916517;29;20191;-95
2021/08/23 04:25:31;;;;;;;6.82;3.60;;;15.70;99.90;;;;;;4916359;29;20211;-94
2021/08/23 04:28:10;;;;;;;8.10;3.92;;;15.70;99.90;;;;;;4917455;29;20186;-94
2021/08/23 04:30:42;;;;;;;7.47;3.65;;;15.60;99.90;;;;;;4919955;29;20690;-94
2021/08/23 04:33:10;;;;;;;7.07;3.80;;;15.70;99.90;;;;;;4920710;29;20187;-94
2021/08/23 04:35:40;;;;;;;6.07;3.60;;;15.60;99.90;;;;;;4920182;29;20269;-95
2021/08/23 04:38:21;;;;;;;4.85;3.75;;;15.70;99.90;;;;;;4921065;29;20199;-94
2021/08/23 04:40:51;;;;;;;6.60;3.75;;;15.70;99.90;;;;;;4922185;29;20684;-95
2021/08/23 04:43:30;;;;;;;4.40;3.33;;;15.70;99.90;;;;;;4923068;29;20195;-94
2021/08/23 04:45:57;;;;;;;4.78;3.60;;;15.70;99.90;;;;;;4920705;29;20190;-95
2021/08/23 04:48:23;;;;;;;4.88;3.33;;;15.70;99.90;;;;;;4921062;29;20191;-95
2021/08/23 04:50:53;;;;;;;10.18;3.85;;;15.70;99.90;;;;;;4920739;29;20218;-95
2021/08/23 04:53:20;;;;;;;6.45;3.38;;;15.70;99.90;;;;;;4920301;29;20245;-95
2021/08/23 04:55:57;;;;;;;6.05;3.65;;;15.70;99.90;;;;;;4922045;29;20183;-94
2021/08/23 04:58:33;;;;;;;5.53;3.40;;;15.70;99.90;;;;;;4922105;29;20190;-94
2021/08/23 05:01:00;;;;;;;7.60;3.38;;;15.70;99.90;;;;;;4920443;29;20369;-96
2021/08/23 05:03:35;;;;;;;6.18;3.55;;;15.70;99.90;;;;;;4919229;29;20289;-94
2021/08/23 05:06:09;;;;;;;5.47;3.30;;;15.70;99.90;;;;;;4918681;29;20188;-95
2021/08/23 05:08:42;;;;;;;7.95;3.10;;;15.70;99.90;;;;;;4919451;29;20645;-94
2021/08/23 05:11:13;;;;;;;4.75;2.70;;;15.70;99.90;;;;;;4918862;29;20222;-95
2021/08/23 05:13:40;;;;;;;4.35;3.00;;;15.70;99.90;;;;;;4918978;29;20183;-94
2021/08/23 05:16:05;;;;;;;4.75;2.90;;;15.70;99.90;;;;;;4918646;29;20186;-94
2021/08/23 05:18:33;;;;;;;6.93;2.90;;;15.60;99.90;;;;;;4918535;29;20186;-93
2021/08/23 05:21:06;;;;;;;3.55;2.90;;;15.70;99.90;;;;;;4918791;29;20221;-95
2021/08/23 05:23:35;;;;;;;4.10;2.90;;;15.70;99.90;;;;;;4918966;29;20656;-94
2021/08/23 05:26:07;;;;;;;6.28;3.22;;;15.60;99.90;;;;;;4918829;29;20194;-94
2021/08/23 05:28:40;;;;;;;6.72;2.85;;;15.60;99.90;;;;;;4918448;29;20214;-94
2021/08/23 05:31:11;;;;;;;4.68;2.78;;;15.60;99.90;;;;;;4917780;29;20215;-93
2021/08/23 05:33:44;;;;;;;8.40;3.10;;;15.70;99.90;;;;;;4918091;29;20190;-95
2021/08/23 05:36:23;;;;;;;3.53;2.95;;;15.70;99.90;;;;;;4918488;29;20190;-94
2021/08/23 05:38:50;;;;;;;7.50;3.33;;;15.70;99.90;;;;;;4919338;29;20187;-94
2021/08/23 05:41:22;;;;;;;4.95;3.10;;;15.70;99.90;;;;;;4917884;29;20218;-94
2021/08/23 05:43:56;;;;;;;5.78;3.30;;;15.70;99.90;;;;;;4917763;29;20724;-95
2021/08/23 05:46:32;;;;;;;14.18;3.15;;;15.70;99.90;;;;;;4918104;29;20242;-93
2021/08/23 05:49:19;;;;;;;4.68;2.88;;;15.70;99.90;;;;;;4918430;29;20192;-93
2021/08/23 05:51:56;;;;;;;3.33;2.40;;;15.70;99.90;;;;;;4918112;29;21086;-95
2021/08/23 05:54:27;;;;;;;6.80;2.83;;;15.70;99.90;;;;;;4917914;29;20194;-95
2021/08/23 05:56:57;;;;;;;5.15;2.92;;;15.70;99.90;;;;;;4917694;29;20183;-93
2021/08/23 05:59:24;;;;;;;4.30;2.80;;;15.70;99.90;;;;;;4917835;29;20193;-93
2021/08/23 06:01:58;;;;;;;3.67;2.50;;;15.70;99.90;;;;;;4917781;29;20304;-94
2021/08/23 06:04:24;;;;;;;4.70;2.75;;;15.70;99.90;;;;;;4902771;29;20337;-94
2021/08/23 06:06:51;;;;;;;4.18;2.70;;;15.80;99.90;;;;;;4917734;29;20210;-93
2021/08/23 06:09:18;;;;;;;5.22;3.00;;;15.80;99.90;;;;;;4917176;29;20201;-95
2021/08/23 06:11:57;;;;;;;5.13;2.58;;;15.80;99.90;;;;;;4917862;29;20226;-96
2021/08/23 06:14:22;;;;;;;4.13;2.67;;;15.80;99.90;;;;;;4918097;29;20186;-95
2021/08/23 06:17:16;;;;;;;4.18;2.20;;;15.70;99.90;;;;;;4918372;29;20183;-94
2021/08/23 06:19:43;;;;;;;5.72;2.72;;;15.80;99.90;;;;;;4917481;29;20186;-93
2021/08/23 06:22:18;;;;;;;4.53;2.60;;;15.70;99.90;;;;;;4917026;29;20225;-94
2021/08/23 06:25:05;;;;;;;4.22;2.40;;;15.80;99.90;;;;;;4917866;29;20276;-93
2021/08/23 06:27:55;;;;;;;3.28;2.28;;;15.80;99.90;;;;;;4920870;29;20186;-94
2021/08/23 06:30:26;;;;;;;3.92;2.30;;;15.80;99.90;;;;;;4918828;29;20225;-92
2021/08/23 06:33:06;;;;;;;3.38;2.25;;;15.80;99.90;;;;;;4917209;29;20251;-94
2021/08/23 06:35:51;;;;;;;3.00;2.20;;;15.80;99.90;;;;;;4916644;29;20185;-95
2021/08/23 06:38:33;;;;;;;3.58;2.17;;;15.90;99.90;;;;;;4917268;29;20641;-94
2021/08/23 06:41:00;;;;;;;5.80;2.60;;;15.90;99.90;;;;;;4917179;29;20257;-95
2021/08/23 06:43:26;;;;;;;3.78;2.70;;;15.90;99.90;;;;;;4917732;29;20671;-94
2021/08/23 06:45:53;;;;;;;6.65;2.70;;;15.90;99.90;;;;;;4917336;29;20202;-95
2021/08/23 06:48:25;;;;;;;9.75;3.05;;;16.00;99.90;;;;;;4917185;29;20194;-96
2021/08/23 06:51:12;;;;;;;5.47;2.55;;;16.00;99.90;;;;;;4917626;29;20243;-93
2021/08/23 06:53:43;;;;;;;6.20;2.88;;;16.00;99.90;;;;;;4917296;29;20238;-95
2021/08/23 06:56:09;;;;;;;4.63;2.83;;;16.00;99.90;;;;;;4918867;29;20193;-94
2021/08/23 06:58:47;;;;;;;6.63;2.55;;;16.10;99.90;;;;;;4920689;29;20193;-96
2021/08/23 07:01:41;;;;;;;3.60;2.80;;;16.10;99.90;;;;;;4916198;29;20234;-92
2021/08/23 07:04:09;;;;;;;9.10;3.65;;;16.20;99.90;;;;;;4917038;29;20201;-92
2021/08/23 07:06:56;;;;;;;6.65;2.55;;;16.20;99.90;;;;;;4917207;29;20187;-94
2021/08/23 07:09:28;;;;;;;5.93;2.80;;;16.20;99.90;;;;;;4918432;29;20186;-95
2021/08/23 07:11:55;;;;;;;5.72;2.40;;;16.30;99.90;;;;;;4916858;29;20222;-93
2021/08/23 07:14:29;;;;;;;4.82;2.58;;;16.30;99.90;;;;;;4917207;29;20186;-93
2021/08/23 07:17:32;;;;;;;4.25;2.70;;;16.40;99.90;;;;;;4918451;29;20183;-95
2021/08/23 07:19:59;;;;;;;5.00;2.70;;;16.40;99.90;;;;;;4919182;29;20190;-96
2021/08/23 07:22:27;;;;;;;6.63;3.13;;;16.40;99.90;;;;;;4917379;29;20186;-93
2021/08/23 07:25:01;;;;;;;4.13;2.70;;;16.50;99.90;;;;;;4917414;29;20285;-96
2021/08/23 07:27:32;;;;;;;4.15;2.45;;;16.50;99.90;;;;;;4918240;29;20731;-94
2021/08/23 07:30:00;;;;;;;5.03;2.80;;;16.60;99.90;;;;;;4918844;29;20287;-95
2021/08/23 07:32:27;;;;;;;4.72;2.40;;;16.60;99.90;;;;;;4918030;29;20218;-94
2021/08/23 07:35:01;;;;;;;3.72;2.75;;;16.60;99.90;;;;;;4918014;29;20635;-96
2021/08/23 07:37:29;;;;;;;5.95;2.85;;;16.70;99.90;;;;;;4916854;29;20541;-95
2021/08/23 07:39:55;;;;;;;3.75;2.67;;;16.60;99.90;;;;;;4917363;29;20210;-94
2021/08/23 07:42:27;;;;;;;6.00;2.63;;;16.70;99.90;;;;;;4918413;29;20214;-95
2021/08/23 07:45:01;;;;;;;3.78;2.75;;;16.70;99.90;;;;;;4918955;29;20607;-96
2021/08/23 07:47:42;;;;;;;7.05;3.28;;;16.80;99.90;;;;;;4917631;29;20249;-93
2021/08/23 07:50:23;;;;;;;5.47;3.13;;;16.80;99.90;;;;;;4916974;29;20190;-95
2021/08/23 07:53:00;;;;;;;4.07;2.35;;;16.80;99.90;;;;;;4916916;29;20189;-95
2021/08/23 07:55:41;;;;;;;3.55;2.85;;;16.80;99.90;;;;;;4917582;29;20193;-96
2021/08/23 07:58:27;;;;;;;4.15;2.80;;;16.80;99.90;;;;;;4917118;29;20555;-95
2021/08/23 08:00:57;;;;;;;3.65;2.63;;;16.80;99.90;;;;;;4916092;29;20226;-94
2021/08/23 08:03:22;;;;;;;5.82;2.38;;;16.90;99.90;;;;;;4918775;29;20260;-94
2021/08/23 08:05:50;;;;;;;2.88;2.33;;;16.90;99.90;;;;;;4920823;29;20186;-95
2021/08/23 08:08:58;;;;;;;3.67;2.42;;;16.90;99.90;;;;;;4920532;29;20187;-96
2021/08/23 08:11:30;;;;;;;6.05;3.00;;;17.00;99.90;;;;;;4920200;29;20224;-96
2021/08/23 08:14:14;;;;;;;7.05;3.15;;;17.00;99.90;;;;;;4920042;29;20186;-94
2021/08/23 08:17:14;;;;;;;3.60;2.50;;;16.90;99.90;;;;;;4920051;29;20652;-94
2021/08/23 08:19:42;;;;;;;4.20;2.85;;;17.00;99.90;;;;;;4920182;29;20194;-95
2021/08/23 08:22:15;;;;;;;3.80;2.80;;;17.00;99.90;;;;;;4920390;29;20217;-96
2021/08/23 08:24:41;;;;;;;4.78;2.72;;;17.00;99.90;;;;;;4920298;29;20255;-96
2021/08/23 08:27:08;;;;;;;4.57;2.70;;;17.00;99.90;;;;;;4919239;29;20707;-93
2021/08/23 08:29:38;;;;;;;3.50;2.85;;;17.10;99.90;;;;;;4919639;29;20286;-96
2021/08/23 08:32:41;;;;;;;3.42;2.40;;;17.20;99.90;;;;;;4920340;29;20245;-95
2021/08/23 08:35:22;;;;;;;4.30;2.72;;;17.30;99.90;;;;;;4920164;29;20198;-95
2021/08/23 08:37:49;;;;;;;4.68;2.60;;;17.30;99.90;;;;;;4920682;29;20246;-96
2021/08/23 08:40:17;;;;;;;4.65;2.67;;;17.30;99.90;;;;;;4919183;29;20183;-94
2021/08/23 08:42:57;;;;;;;2.80;2.35;;;17.40;99.90;;;;;;4919283;29;20238;-96
2021/08/23 08:45:32;;;;;;;4.03;2.60;;;17.60;99.90;;;;;;4919841;29;20185;-94
2021/08/23 08:48:32;;;;;;;4.18;2.22;;;17.80;99.90;;;;;;4919110;29;20179;-93
2021/08/23 08:51:08;;;;;;;4.13;2.20;;;17.90;99.90;;;;;;4919466;29;20583;-96
2021/08/23 08:54:00;;;;;;;5.50;2.22;;;18.00;99.90;;;;;;4919041;29;20194;-95
2021/08/23 08:56:42;;;;;;;4.63;2.42;;;18.00;99.90;;;;;;4919165;29;20293;-95
2021/08/23 08:59:12;;;;;;;5.57;2.50;;;18.10;99.90;;;;;;4919212;29;20182;-95
2021/08/23 09:01:49;;;;;;;7.80;2.10;;;18.20;99.90;;;;;;4919228;29;20281;-94
2021/08/23 09:04:31;;;;;;;5.57;2.10;;;18.20;99.90;;;;;;4918971;29;20670;-95
2021/08/23 09:06:59;;;;;;;2.75;1.80;;;18.30;99.90;;;;;;4918357;29;20289;-95
2021/08/23 09:09:30;;;;;;;3.58;1.83;;;18.30;99.90;;;;;;4918985;29;20190;-95
2021/08/23 09:12:14;;;;;;;3.17;1.70;;;18.40;99.90;;;;;;4919034;29;20226;-94
2021/08/23 09:15:03;;;;;;;3.65;1.83;;;18.50;99.90;;;;;;4917922;29;20273;-95
2021/08/23 09:17:28;;;;;;;2.13;1.50;;;18.80;99.90;;;;;;4903366;29;20190;-94
2021/08/23 09:20:19;;;;;;;3.45;1.67;;;18.90;99.90;;;;;;4918636;29;20187;-95
2021/08/23 09:22:47;;;;;;;3.20;1.50;;;19.00;99.90;;;;;;4919335;29;20182;-95
2021/08/23 09:25:44;;;;;;;5.30;1.38;;;19.00;99.90;;;;;;4919563;29;20213;-94
2021/08/23 09:28:21;;;;;;;4.25;1.52;;;18.90;99.90;;;;;;4918822;29;20190;-94
2021/08/23 09:31:11;;;;;;;2.13;1.50;;;18.90;99.90;;;;;;4919523;29;20273;-93
2021/08/23 09:33:46;;;;;;;2.60;1.30;;;18.90;99.90;;;;;;4919628;29;20186;-95
2021/08/23 09:36:19;;;;;;;2.80;1.27;;;18.90;99.90;;;;;;4919320;29;20200;-95
2021/08/23 09:39:04;;;;;;;3.28;1.23;;;18.90;99.90;;;;;;4919312;29;20190;-94
2021/08/23 09:41:49;;;;;;;2.75;1.50;;;18.90;99.90;;;;;;4919169;29;20694;-95
2021/08/23 09:44:22;;;;;;;2.38;1.50;;;19.10;99.90;;;;;;4918744;29;20262;-93
2021/08/23 09:47:07;;;;;;;3.47;1.67;;;19.40;99.90;;;;;;4918832;29;20190;-96
2021/08/23 09:49:45;;;;;;;2.80;1.20;;;19.50;99.90;;;;;;4918538;29;20194;-95
2021/08/23 09:52:27;;;;;;;2.58;1.40;;;19.60;99.90;;;;;;4918565;29;20300;-95
2021/08/23 09:55:19;;;;;;;3.45;1.40;;;19.60;99.90;;;;;;4918883;29;20186;-95
2021/08/23 09:57:48;;;;;;;1.65;1.10;;;19.60;99.90;;;;;;4916518;29;20265;-95
2021/08/23 10:00:23;;;;;;;2.95;1.42;;;19.70;99.90;;;;;;4918255;29;20226;-96
2021/08/23 10:02:50;;;;;;;2.85;1.30;;;19.80;99.90;;;;;;4918552;29;20194;-96
2021/08/23 10:05:19;;;;;;;1.92;1.38;;;19.80;99.90;;;;;;4919240;29;20238;-95
2021/08/23 10:07:52;;;;;;;1.63;1.17;;;19.70;99.90;;;;;;4918649;29;20683;-96
2021/08/23 10:10:24;;;;;;;1.83;1.30;;;19.70;99.90;;;;;;4917987;29;20182;-95
2021/08/23 10:12:50;;;;;;;3.13;1.20;;;19.70;99.90;;;;;;4907331;29;20198;-95
2021/08/23 10:15:51;;;;;;;2.15;1.20;;;19.60;99.90;;;;;;4915870;29;20189;-94
2021/08/23 10:18:19;;;;;;;3.15;1.10;;;19.70;99.90;;;;;;4901847;29;20280;-96
2021/08/23 10:21:00;;;;;;;1.58;1.10;;;19.70;99.90;;;;;;4917041;29;20705;-95
2021/08/23 10:23:27;;;;;;;3.00;1.50;;;19.70;99.90;;;;;;4917239;29;20178;-95
2021/08/23 10:25:56;;;;;;;1.25;0.90;;;19.70;99.90;;;;;;4908272;29;20244;-94
2021/08/23 10:28:48;;;;;;;1.77;0.90;;;19.70;99.90;;;;;;4916268;29;20556;-94
2021/08/23 10:31:22;;;;;;;2.20;0.90;;;19.80;99.90;;;;;;4915681;29;20441;-95
2021/08/23 10:33:57;;;;;;;1.63;0.88;;;20.00;99.90;;;;;;4916675;29;20191;-93
2021/08/23 10:36:41;;;;;;;2.90;1.05;;;20.10;99.90;;;;;;4916836;29;20277;-94
2021/08/23 10:39:24;;;;;;;3.50;1.00;;;20.30;99.90;;;;;;4910914;29;20240;-94
2021/08/23 10:41:52;;;;;;;1.25;0.65;;;20.30;97.60;;;;;;4916969;29;20786;-95
2021/08/23 10:44:49;;;;;;;0.90;0.70;;;20.30;99.10;;;;;;4917261;29;20664;-95
2021/08/23 10:47:30;;;;;;;1.42;0.82;;;20.40;98.80;;;;;;4916558;29;20277;-96
2021/08/23 10:50:45;;;;;;;3.97;0.77;;;20.50;99.30;;;;;;4909589;29;20217;-95
2021/08/23 10:53:14;;;;;;;1.25;0.82;;;20.50;98.30;;;;;;4918295;29;20202;-95
2021/08/23 10:55:41;;;;;;;1.42;0.98;;;20.70;98.80;;;;;;4917906;29;20202;-95
2021/08/23 10:58:14;;;;;;;1.52;0.80;;;20.80;97.60;;;;;;4911250;29;20244;-95
2021/08/23 11:00:43;;;;;;;3.45;1.10;;;20.80;98.60;;;;;;4914931;29;20222;-96
2021/08/23 11:03:13;;;;;;;5.05;0.90;;;20.90;99.00;;;;;;4917070;29;20222;-96
2021/08/23 11:05:46;;;;;;;1.35;0.80;;;20.90;96.70;;;;;;4917949;29;20179;-96
2021/08/23 11:08:19;;;;;;;3.47;0.73;;;21.00;98.40;;;;;;4918075;29;20183;-96
2021/08/23 11:10:45;;;;;;;1.63;0.90;;;21.10;96.40;;;;;;4920810;29;20223;-95
2021/08/23 11:13:19;;;;;;;1.23;0.80;;;21.10;96.00;;;;;;4921034;29;20183;-95
2021/08/23 11:15:48;;;;;;;2.17;0.90;;;21.10;94.20;;;;;;4910005;29;20234;-95
2021/08/23 11:18:16;;;;;;;1.63;1.00;;;21.20;94.70;;;;;;4916416;29;20239;-95
2021/08/23 11:20:46;;;;;;;2.17;0.90;;;21.20;95.70;;;;;;4916013;29;20249;-95
2021/08/23 11:23:20;;;;;;;4.57;1.02;;;21.20;95.70;;;;;;4917394;29;20189;-96
2021/08/23 11:25:48;;;;;;;2.33;0.80;;;21.30;95.60;;;;;;4917689;29;20187;-95
2021/08/23 11:28:27;;;;;;;3.25;1.05;;;21.40;94.90;;;;;;4917559;29;20221;-95
2021/08/23 11:30:55;;;;;;;2.13;0.73;;;21.40;94.10;;;;;;4919115;29;20225;-94
2021/08/23 11:33:40;;;;;;;1.23;0.70;;;21.40;94.10;;;;;;4920126;29;20184;-95
2021/08/23 11:36:17;;;;;;;1.27;0.93;;;21.30;93.20;;;;;;4919657;29;20222;-95
2021/08/23 11:38:43;;;;;;;2.60;1.08;;;21.30;92.70;;;;;;4921481;29;20234;-94
2021/08/23 11:41:12;;;;;;;1.50;1.00;;;21.40;93.80;;;;;;4922531;29;20206;-94
2021/08/23 11:43:47;;;;;;;2.25;1.00;;;21.40;91.90;;;;;;4921375;29;20186;-95
2021/08/23 11:46:22;;;;;;;2.88;0.82;;;21.40;92.70;;;;;;4924155;29;20238;-96
2021/08/23 11:48:55;;;;;;;3.45;0.93;;;21.40;90.20;;;;;;4922673;29;20186;-95
2021/08/23 11:51:33;;;;;;;3.80;1.08;;;21.50;92.30;;;;;;4924454;29;20732;-94
2021/08/23 11:54:09;;;;;;;1.10;0.80;;;21.50;91.90;;;;;;4925249;29;20191;-95
2021/08/23 11:56:38;;;;;;;7.28;1.25;;;21.60;91.30;;;;;;4924814;29;20175;-95
2021/08/23 11:59:15;;;;;;;1.88;1.23;;;21.60;90.90;;;;;;4921990;29;20187;-96
2021/08/23 12:01:43;;;;;;;3.92;1.20;;;21.60;90.90;;;;;;4921002;29;20702;-95
2021/08/23 12:04:24;;;;;;;2.47;1.63;;;21.70;90.00;;;;;;4922336;29;20558;-94
2021/08/23 12:06:57;;;;;;;3.50;1.60;;;21.70;90.50;;;;;;4913832;29;20229;-95
2021/08/23 12:09:24;;;;;;;4.85;1.50;;;21.80;88.30;;;;;;4921484;29;20205;-94
2021/08/23 12:11:55;;;;;;;8.45;1.70;;;21.80;90.40;;;;;;4921451;29;20317;-96
2021/08/23 12:14:24;;;;;;;2.67;1.80;;;21.90;91.80;;;;;;4922095;29;20186;-94
2021/08/23 12:16:52;;;;;;;9.15;1.63;;;21.90;87.40;;;;;;4921668;29;20191;-95
2021/08/23 12:19:18;;;;;;;6.40;1.85;;;21.90;89.80;;;;;;4912428;29;20614;-96
2021/08/23 12:22:04;;;;;;;5.10;2.13;;;22.00;90.20;;;;;;4920472;29;20682;-93
2021/08/23 12:24:38;;;;;;;3.35;2.10;;;22.00;87.80;;;;;;4922692;29;20186;-95
2021/08/23 12:27:16;;;;;;;3.20;2.15;;;21.90;89.20;;;;;;4921713;29;20189;-96
2021/08/23 12:29:53;;;;;;;7.82;2.33;;;21.90;89.20;;;;;;4921677;29;20676;-95
2021/08/23 12:32:19;;;;;;;2.83;2.10;;;21.90;88.70;;;;;;4917006;29;20277;-95
2021/08/23 12:34:52;;;;;;;3.42;1.83;;;22.00;88.50;;;;;;4926055;29;20182;-95
2021/08/23 12:37:30;;;;;;;3.78;2.03;;;22.00;89.80;;;;;;4923200;29;20206;-94
2021/08/23 12:39:56;;;;;;;3.00;1.90;;;22.00;90.00;;;;;;4922860;29;20247;-96
2021/08/23 12:42:41;;;;;;;3.40;1.90;;;21.90;90.20;;;;;;4922508;29;20245;-93
2021/08/23 12:45:08;;;;;;;3.80;2.03;;;22.00;91.70;;;;;;4922428;29;20182;-96
2021/08/23 12:47:42;;;;;;;5.80;1.92;;;22.10;91.30;;;;;;4906053;29;20218;-95
2021/08/23 12:50:10;;;;;;;7.15;2.47;;;22.10;91.50;;;;;;4920500;29;20206;-94
2021/08/23 12:52:43;;;;;;;2.95;1.83;;;22.00;91.80;;;;;;4905005;29;20732;-95
2021/08/23 12:55:10;;;;;;;3.75;2.03;;;22.00;92.20;;;;;;4922271;29;20277;-96
2021/08/23 12:57:36;;;;;;;5.30;2.13;;;22.00;92.30;;;;;;4922253;29;20291;-96
2021/08/23 13:00:11;;;;;;;3.22;2.10;;;22.00;92.70;;;;;;4923458;29;20219;-95
2021/08/23 13:02:40;;;;;;;3.03;2.08;;;21.90;92.80;;;;;;4878440;29;20933;-95
2021/08/23 13:05:08;;;;;;;3.83;1.85;;;21.90;93.30;;;;;;4887969;29;20184;-95
2021/08/23 13:07:35;;;;;;;2.45;1.50;;;21.80;92.80;;;;;;4889351;29;20191;-95
2021/08/23 13:10:01;;;;;;;3.58;1.58;;;21.70;93.20;;;;;;4890116;29;20183;-95
2021/08/23 13:12:29;;;;;;;3.45;1.75;;;21.70;93.80;;;;;;4890891;29;20219;-96
2021/08/23 13:14:57;;;;;;;3.72;1.80;;;21.80;93.00;;;;;;4878565;29;21822;-96
2021/08/23 13:17:28;;;;;;;4.93;1.77;;;21.80;93.30;;;;;;4889152;29;20672;-95
2021/08/23 13:19:56;;;;;;;3.25;1.83;;;21.80;93.70;;;;;;4889658;29;20210;-95